createdAt,value
2019-05-16T00:02:14.747Z,6.67
2019-05-16T00:04:41.499Z,6.65
2019-05-16T00:07:08.258Z,6.64
2019-05-16T00:09:35.045Z,6.62
2019-05-16T00:12:01.730Z,6.63
2019-05-16T00:14:28.468Z,6.59
2019-05-16T00:16:55.281Z,6.56
2019-05-16T00:19:22.003Z,6.51
2019-05-16T00:21:48.878Z,6.51
2019-05-16T00:24:15.662Z,6.50
2019-05-16T00:26:42.376Z,6.43
2019-05-16T00:29:09.110Z,6.40
2019-05-16T00:31:38.070Z,6.34
2019-05-16T00:34:04.529Z,6.31
2019-05-16T00:36:31.257Z,6.28
2019-05-16T00:38:58.043Z,6.31
2019-05-16T00:41:24.800Z,6.31
2019-05-16T00:43:51.553Z,6.28
2019-05-16T00:46:20.059Z,6.29
2019-05-16T00:48:48.710Z,6.26
2019-05-16T00:51:18.135Z,6.20
2019-05-16T00:53:44.618Z,6.18
2019-05-16T00:56:11.367Z,6.17
2019-05-16T00:58:38.931Z,6.16
2019-05-16T01:01:08.303Z,6.14
2019-05-16T01:03:34.370Z,6.14
2019-05-16T01:06:01.094Z,6.16
2019-05-16T01:08:28.316Z,6.15
2019-05-16T01:10:55.323Z,6.13
2019-05-16T01:13:22.049Z,6.09
2019-05-16T01:15:48.892Z,6.12
2019-05-16T01:18:15.588Z,6.11
2019-05-16T01:20:42.322Z,6.11
2019-05-16T01:23:09.206Z,6.09
2019-05-16T01:25:36.000Z,6.09
2019-05-16T01:28:03.153Z,6.08
2019-05-16T01:30:29.921Z,6.00
2019-05-16T01:32:58.243Z,6.06
2019-05-16T01:35:25.184Z,6.09
2019-05-16T01:37:51.969Z,6.09
2019-05-16T01:40:19.065Z,5.96
2019-05-16T01:42:45.933Z,6.03
2019-05-16T01:45:13.237Z,6.06
2019-05-16T01:47:39.969Z,6.06
2019-05-16T01:50:08.692Z,6.07
2019-05-16T01:52:38.056Z,6.11
2019-05-16T01:55:04.724Z,6.10
2019-05-16T01:57:31.474Z,6.13
2019-05-16T01:59:58.915Z,6.11
2019-05-16T02:02:25.932Z,6.10
2019-05-16T02:04:52.658Z,6.11
2019-05-16T02:07:19.520Z,6.05
2019-05-16T02:09:47.687Z,6.02
2019-05-16T02:12:14.595Z,5.98
2019-05-16T02:14:41.437Z,5.96
2019-05-16T02:17:10.891Z,5.96
2019-05-16T02:19:38.462Z,5.98
2019-05-16T02:22:05.362Z,5.98
2019-05-16T02:24:32.199Z,5.99
2019-05-16T02:26:59.143Z,6.01
2019-05-16T02:29:26.049Z,6.04
2019-05-16T02:31:52.767Z,6.04
2019-05-16T02:34:21.728Z,6.04
2019-05-16T02:37:09.542Z,6.01
2019-05-16T02:39:16.640Z,6.01
2019-05-16T02:41:46.284Z,5.94
2019-05-16T02:44:12.312Z,5.91
2019-05-16T02:46:41.817Z,5.92
2019-05-16T02:49:11.337Z,5.92
2019-05-16T02:51:36.349Z,5.91
2019-05-16T02:54:03.188Z,5.89
2019-05-16T02:56:31.690Z,5.85
2019-05-16T02:59:01.733Z,5.78
2019-05-16T03:01:31.601Z,5.83
2019-05-16T03:03:56.810Z,5.79
2019-05-16T03:06:25.521Z,5.79
2019-05-16T03:08:54.027Z,5.79
2019-05-16T03:11:21.407Z,5.78
2019-05-16T03:13:52.370Z,5.77
2019-05-16T03:16:22.243Z,5.79
2019-05-16T03:18:51.620Z,5.78
2019-05-16T03:21:22.335Z,5.76
2019-05-16T03:23:50.770Z,5.75
2019-05-16T03:26:20.823Z,5.73
2019-05-16T03:28:46.214Z,5.75
2019-05-16T03:31:15.264Z,5.76
2019-05-16T03:33:49.894Z,5.74
2019-05-16T03:36:14.726Z,5.73
2019-05-16T03:38:41.107Z,5.69
2019-05-16T03:41:07.157Z,5.69
2019-05-16T03:43:33.972Z,5.65
2019-05-16T03:46:02.557Z,5.65
2019-05-16T03:48:31.542Z,5.64
2019-05-16T03:51:00.652Z,5.61
2019-05-16T03:53:26.452Z,5.57
2019-05-16T03:55:53.198Z,5.53
2019-05-16T03:58:22.544Z,5.50
2019-05-16T04:00:53.202Z,5.51
2019-05-16T04:03:21.431Z,5.52
2019-05-16T04:05:52.106Z,5.44
2019-05-16T04:08:23.353Z,5.39
2019-05-16T04:10:45.956Z,5.32
2019-05-16T04:13:12.880Z,5.23
2019-05-16T04:15:40.752Z,5.21
2019-05-16T04:18:10.915Z,5.19
2019-05-16T04:20:40.426Z,5.13
2019-05-16T04:23:06.970Z,5.13
2019-05-16T04:25:33.777Z,5.12
2019-05-16T04:28:01.079Z,5.11
2019-05-16T04:30:31.003Z,5.09
2019-05-16T04:32:56.541Z,5.05
2019-05-16T04:35:23.343Z,5.02
2019-05-16T04:37:51.290Z,5.03
2019-05-16T04:40:18.259Z,4.99
2019-05-16T04:42:46.774Z,4.95
2019-05-16T04:45:13.692Z,4.94
2019-05-16T04:47:41.314Z,4.90
2019-05-16T04:50:11.615Z,4.89
2019-05-16T04:52:37.656Z,4.91
2019-05-16T04:55:07.640Z,4.92
2019-05-16T04:57:34.828Z,4.97
2019-05-16T05:00:02.573Z,5.06
2019-05-16T05:02:30.931Z,5.12
2019-05-16T05:05:00.975Z,5.17
2019-05-16T05:07:26.617Z,5.24
2019-05-16T05:09:53.341Z,5.31
2019-05-16T05:12:20.795Z,5.40
2019-05-16T05:14:50.809Z,5.50
2019-05-16T05:17:16.426Z,5.59
2019-05-16T05:19:43.179Z,5.64
2019-05-16T05:22:10.460Z,5.66
2019-05-16T05:24:37.274Z,5.71
2019-05-16T05:27:04.034Z,5.75
2019-05-16T05:29:30.853Z,5.81
2019-05-16T05:32:03.508Z,5.86
2019-05-16T05:34:26.134Z,5.96
2019-05-16T05:36:54.213Z,5.98
2019-05-16T05:39:23.467Z,6.01
2019-05-16T05:41:50.511Z,6.06
2019-05-16T05:44:17.465Z,6.10
2019-05-16T05:46:44.215Z,6.17
2019-05-16T05:49:11.082Z,6.32
2019-05-16T05:51:37.834Z,6.40
2019-05-16T05:54:04.561Z,6.41
2019-05-16T05:56:31.315Z,6.45
2019-05-16T05:58:59.016Z,6.49
2019-05-16T06:01:26.588Z,6.51
2019-05-16T06:03:56.712Z,6.54
2019-05-16T06:06:23.469Z,6.54
2019-05-16T06:08:50.423Z,6.53
2019-05-16T06:11:17.162Z,6.54
2019-05-16T06:13:43.941Z,6.53
2019-05-16T06:16:10.970Z,6.53
2019-05-16T06:18:39.700Z,6.47
2019-05-16T06:21:06.449Z,6.51
2019-05-16T06:23:33.216Z,6.51
2019-05-16T06:26:00.602Z,6.58
2019-05-16T06:28:27.447Z,6.61
2019-05-16T06:30:54.171Z,6.67
2019-05-16T06:33:20.997Z,6.71
2019-05-16T06:35:47.714Z,6.82
2019-05-16T06:38:14.463Z,6.87
2019-05-16T06:40:41.314Z,6.93
2019-05-16T06:43:08.058Z,6.98
2019-05-16T06:45:34.803Z,7.08
2019-05-16T06:48:01.568Z,7.16
2019-05-16T06:50:29.733Z,7.25
2019-05-16T06:52:56.761Z,7.35
2019-05-16T06:55:23.636Z,7.45
2019-05-16T06:57:50.512Z,7.54
2019-05-16T07:00:17.207Z,7.64
2019-05-16T07:02:44.060Z,7.70
2019-05-16T07:05:10.779Z,7.74
2019-05-16T07:07:37.578Z,7.82
2019-05-16T07:10:04.846Z,7.89
2019-05-16T07:12:34.083Z,7.96
2019-05-16T07:15:01.810Z,8.01
2019-05-16T07:17:30.577Z,8.06
2019-05-16T07:19:57.216Z,8.11
2019-05-16T07:22:23.937Z,8.15
2019-05-16T07:24:50.742Z,8.23
2019-05-16T07:27:17.464Z,8.32
2019-05-16T07:29:44.388Z,8.43
2019-05-16T07:32:12.626Z,8.49
2019-05-16T07:34:40.381Z,8.54
2019-05-16T07:37:07.244Z,8.63
2019-05-16T07:39:34.065Z,8.72
2019-05-16T07:42:00.818Z,8.76
2019-05-16T07:44:27.555Z,8.85
2019-05-16T07:46:54.367Z,8.94
2019-05-16T07:49:21.080Z,9.03
2019-05-16T07:51:49.792Z,9.10
2019-05-16T07:54:16.409Z,9.20
2019-05-16T07:56:43.131Z,9.28
2019-05-16T07:59:10.453Z,9.37
2019-05-16T08:01:39.732Z,9.45
2019-05-16T08:04:05.923Z,9.56
2019-05-16T08:06:34.025Z,9.66
2019-05-16T08:09:01.074Z,9.67
2019-05-16T08:11:30.418Z,9.83
2019-05-16T08:13:56.360Z,9.89
2019-05-16T08:16:23.166Z,10.02
2019-05-16T08:18:50.662Z,9.99
2019-05-16T08:21:20.124Z,10.13
2019-05-16T08:23:46.216Z,10.22
2019-05-16T08:26:12.974Z,10.38
2019-05-16T08:28:41.202Z,10.50
2019-05-16T08:31:11.180Z,10.66
2019-05-16T08:33:36.896Z,10.63
2019-05-16T08:36:08.138Z,10.88
2019-05-16T08:38:33.112Z,11.02
2019-05-16T08:43:31.295Z,11.38
2019-05-16T08:45:56.963Z,11.65
2019-05-16T08:48:23.725Z,11.89
2019-05-16T08:53:21.637Z,12.16
2019-05-16T08:55:50.338Z,12.39
2019-05-16T08:58:16.250Z,12.45
2019-05-16T09:00:43.050Z,12.58
2019-05-16T09:03:12.310Z,12.60
2019-05-16T09:05:42.627Z,12.71
2019-05-16T09:08:07.031Z,12.90
2019-05-16T09:10:30.561Z,12.03
2019-05-16T09:10:37.993Z,11.18
2019-05-16T09:10:49.782Z,12.88
2019-05-16T09:13:02.220Z,12.88
2019-05-16T09:15:28.953Z,13.01
2019-05-16T09:17:58.143Z,13.09
2019-05-16T09:20:24.273Z,13.18
2019-05-16T09:22:51.158Z,13.17
2019-05-16T09:25:18.713Z,13.26
2019-05-16T09:27:47.043Z,13.30
2019-05-16T09:30:17.093Z,13.29
2019-05-16T09:32:43.322Z,13.42
2019-05-16T09:35:10.468Z,13.42
2019-05-16T09:37:37.679Z,13.34
2019-05-16T09:40:07.079Z,13.52
2019-05-16T09:42:33.876Z,13.66
2019-05-16T09:45:00.740Z,13.82
2019-05-16T09:47:28.407Z,13.95
2019-05-16T09:49:57.782Z,14.09
2019-05-16T09:52:23.985Z,14.13
2019-05-16T09:54:50.708Z,14.24
2019-05-16T09:57:18.938Z,14.27
2019-05-16T09:59:46.518Z,14.32
2019-05-16T10:02:13.353Z,14.41
2019-05-16T10:04:40.177Z,14.27
2019-05-16T10:07:06.954Z,14.34
2019-05-16T10:09:44.081Z,14.27
2019-05-16T10:12:14.213Z,14.25
2019-05-16T10:14:30.611Z,14.15
2019-05-16T10:16:57.864Z,14.19
2019-05-16T10:19:27.368Z,14.18
2019-05-16T10:21:53.367Z,14.24
2019-05-16T10:24:20.287Z,14.41
2019-05-16T10:26:53.450Z,14.42
2019-05-16T10:29:18.456Z,14.45
2019-05-16T10:31:49.282Z,14.31
2019-05-16T10:34:12.471Z,14.30
2019-05-16T10:36:39.241Z,14.31
2019-05-16T10:39:07.618Z,14.39
2019-05-16T10:41:36.946Z,14.45
2019-05-16T10:44:03.185Z,14.54
2019-05-16T10:46:29.913Z,14.68
2019-05-16T10:48:57.774Z,14.74
2019-05-16T10:51:26.740Z,14.77
2019-05-16T10:54:05.778Z,14.76
2019-05-16T10:56:21.857Z,14.80
2019-05-16T10:59:24.888Z,14.75
2019-05-16T11:01:26.954Z,14.75
2019-05-16T11:03:48.797Z,14.80
2019-05-16T11:06:25.346Z,14.81
2019-05-16T11:08:42.946Z,14.83
2019-05-16T11:11:09.652Z,14.83
2019-05-16T11:13:37.027Z,14.81
2019-05-16T11:16:03.914Z,14.74
2019-05-16T11:18:30.627Z,14.74
2019-05-16T11:20:58.309Z,14.63
2019-05-16T11:23:30.886Z,14.52
2019-05-16T11:25:55.484Z,14.35
2019-05-16T11:28:22.386Z,14.25
2019-05-16T11:30:49.945Z,14.25
2019-05-16T11:33:17.572Z,14.16
2019-05-16T11:35:47.308Z,14.10
2019-05-16T11:38:12.974Z,14.08
2019-05-16T11:40:39.836Z,14.05
2019-05-16T11:43:15.953Z,14.00
2019-05-16T11:45:36.795Z,14.02
2019-05-16T11:48:03.907Z,13.95
2019-05-16T11:50:30.688Z,13.94
2019-05-16T11:52:57.452Z,13.96
2019-05-16T11:55:32.224Z,13.96
2019-05-16T11:57:52.786Z,13.96
2019-05-16T12:00:20.348Z,14.00
2019-05-16T12:02:47.997Z,14.02
2019-05-16T12:05:17.180Z,14.03
2019-05-16T12:07:44.559Z,14.02
2019-05-16T12:10:13.204Z,14.05
2019-05-16T12:12:40.063Z,14.09
2019-05-16T12:15:08.108Z,14.18
2019-05-16T12:17:35.057Z,14.31
2019-05-16T12:20:02.102Z,14.36
2019-05-16T12:22:28.841Z,14.37
2019-05-16T12:24:57.440Z,14.24
2019-05-16T12:27:31.846Z,14.31
2019-05-16T12:29:55.478Z,14.30
2019-05-16T12:32:21.320Z,14.22
2019-05-16T12:34:48.162Z,14.20
2019-05-16T12:37:14.921Z,14.13
2019-05-16T12:39:41.658Z,14.10
2019-05-16T12:42:08.710Z,14.06
2019-05-16T12:44:37.349Z,13.94
2019-05-16T12:47:04.136Z,13.89
2019-05-16T12:49:30.921Z,13.71
2019-05-16T12:51:57.676Z,13.81
2019-05-16T12:54:24.438Z,13.81
2019-05-16T12:56:51.226Z,13.83
2019-05-16T12:59:21.215Z,13.80
2019-05-16T13:01:48.128Z,13.73
2019-05-16T13:04:18.531Z,13.77
2019-05-16T13:06:43.580Z,13.71
2019-05-16T13:09:10.361Z,13.70
2019-05-16T13:11:37.864Z,13.71
2019-05-16T13:14:09.900Z,13.65
2019-05-16T13:16:33.293Z,13.61
2019-05-16T13:19:00.051Z,13.59
2019-05-16T13:21:27.577Z,13.58
2019-05-16T13:23:54.425Z,13.51
2019-05-16T13:26:22.501Z,13.53
2019-05-16T13:28:49.265Z,13.46
2019-05-16T13:31:17.133Z,13.39
2019-05-16T13:33:44.676Z,13.42
2019-05-16T13:36:11.512Z,13.49
2019-05-16T13:38:38.253Z,13.53
2019-05-16T13:41:07.441Z,13.51
2019-05-16T13:43:33.758Z,13.52
2019-05-16T13:46:00.558Z,13.55
2019-05-16T13:48:27.370Z,13.56
2019-05-16T13:51:08.393Z,13.54
2019-05-16T13:53:22.691Z,13.58
2019-05-16T13:55:49.565Z,13.54
2019-05-16T13:58:17.913Z,13.53
2019-05-16T14:00:44.791Z,13.52
2019-05-16T14:03:11.572Z,13.51
2019-05-16T14:05:38.339Z,13.52
2019-05-16T14:08:06.789Z,13.44
2019-05-16T14:10:33.882Z,13.49
2019-05-16T14:13:00.608Z,13.48
2019-05-16T14:15:27.352Z,13.48
2019-05-16T14:17:56.794Z,13.44
2019-05-16T14:20:23.935Z,13.40
2019-05-16T14:22:50.670Z,13.36
2019-05-16T14:25:17.498Z,13.31
2019-05-16T14:27:44.214Z,13.27
2019-05-16T14:30:13.039Z,13.33
2019-05-16T14:32:42.946Z,13.34
2019-05-16T14:35:09.234Z,13.33
2019-05-16T14:37:37.842Z,13.38
2019-05-16T14:40:06.283Z,13.27
2019-05-16T14:42:33.046Z,13.28
2019-05-16T14:45:10.897Z,13.32
2019-05-16T14:47:29.369Z,13.36
2019-05-16T14:49:56.090Z,13.39
2019-05-16T14:52:22.845Z,13.43
2019-05-16T14:54:49.641Z,13.35
2019-05-16T14:57:16.777Z,13.35
2019-05-16T14:59:43.617Z,13.34
2019-05-16T15:02:10.506Z,13.27
2019-05-16T15:04:37.740Z,13.34
2019-05-16T15:07:06.821Z,13.34
2019-05-16T15:09:33.379Z,13.33
2019-05-16T15:12:00.159Z,13.34
2019-05-16T15:14:28.092Z,13.31
2019-05-16T15:16:57.421Z,13.27
2019-05-16T15:19:24.885Z,13.27
2019-05-16T15:21:51.636Z,13.23
2019-05-16T15:24:18.502Z,13.25
2019-05-16T15:26:47.238Z,13.13
2019-05-16T15:29:16.359Z,13.14
2019-05-16T15:31:42.649Z,13.09
2019-05-16T15:34:09.425Z,13.07
2019-05-16T15:36:37.242Z,13.02
2019-05-16T15:39:08.100Z,13.00
2019-05-16T15:41:36.672Z,13.02
2019-05-16T15:44:03.865Z,13.01
2019-05-16T15:46:30.750Z,12.92
2019-05-16T15:49:00.417Z,12.99
2019-05-16T15:51:27.387Z,12.90
2019-05-16T15:53:57.096Z,12.89
2019-05-16T15:56:26.942Z,12.88
2019-05-16T15:58:52.977Z,12.84
2019-05-16T16:01:19.842Z,12.86
2019-05-16T16:03:47.281Z,12.81
2019-05-16T16:06:14.259Z,12.78
2019-05-16T16:08:41.050Z,12.76
2019-05-16T16:11:07.803Z,12.72
2019-05-16T16:13:37.152Z,12.62
2019-05-16T16:16:03.533Z,12.62
2019-05-16T16:18:30.282Z,12.38
2019-05-16T16:20:57.278Z,12.44
2019-05-16T16:23:27.009Z,12.49
2019-05-16T16:25:52.721Z,12.46
2019-05-16T16:28:19.632Z,12.40
2019-05-16T16:30:47.954Z,12.38
2019-05-16T16:33:24.994Z,12.41
2019-05-16T16:35:48.082Z,12.29
2019-05-16T16:38:16.926Z,12.33
2019-05-16T16:40:43.511Z,12.29
2019-05-16T16:43:11.668Z,12.18
2019-05-16T16:45:38.470Z,12.16
2019-05-16T16:48:07.638Z,12.10
2019-05-16T16:50:33.935Z,12.07
2019-05-16T16:53:00.816Z,12.07
2019-05-16T16:55:27.768Z,11.94
2019-05-16T16:57:56.666Z,11.83
2019-05-16T17:00:23.279Z,11.89
2019-05-16T17:03:03.102Z,11.85
2019-05-16T17:05:20.911Z,11.89
2019-05-16T17:07:48.673Z,11.81
2019-05-16T17:10:16.559Z,11.74
2019-05-16T17:12:43.651Z,11.62
2019-05-16T17:15:11.172Z,11.61
2019-05-16T17:17:37.949Z,11.61
2019-05-16T17:20:07.625Z,11.65
2019-05-16T17:22:37.133Z,11.64
2019-05-16T17:25:07.310Z,11.54
2019-05-16T17:27:34.068Z,11.46
2019-05-16T17:30:02.451Z,11.51
2019-05-16T17:32:29.472Z,11.48
2019-05-16T17:34:56.177Z,11.37
2019-05-16T17:37:23.076Z,11.41
2019-05-16T17:39:49.947Z,11.42
2019-05-16T17:42:16.767Z,11.37
2019-05-16T17:44:47.074Z,11.32
2019-05-16T17:47:12.176Z,11.28
2019-05-16T17:49:41.379Z,11.24
2019-05-16T17:52:08.336Z,11.21
2019-05-16T17:54:37.134Z,11.20
2019-05-16T17:57:03.808Z,11.17
2019-05-16T17:59:30.684Z,11.07
2019-05-16T18:01:57.423Z,11.05
2019-05-16T18:04:26.530Z,10.99
2019-05-16T18:06:52.838Z,10.95
2019-05-16T18:09:19.598Z,10.91
2019-05-16T18:11:46.788Z,10.87
2019-05-16T18:14:17.174Z,10.76
2019-05-16T18:16:58.395Z,10.66
2019-05-16T18:19:23.784Z,10.68
2019-05-16T18:22:02.831Z,10.62
2019-05-16T18:24:33.786Z,10.61
2019-05-16T18:27:07.390Z,10.60
2019-05-16T18:29:39.933Z,10.62
2019-05-16T18:32:08.185Z,10.58
2019-05-16T18:34:37.453Z,10.60
2019-05-16T18:37:03.550Z,10.62
2019-05-16T18:39:30.268Z,10.62
2019-05-16T18:41:57.015Z,10.56
2019-05-16T18:44:24.668Z,10.53
2019-05-16T18:47:04.032Z,10.54
2019-05-16T18:49:19.965Z,10.53
2019-05-16T18:51:46.839Z,10.55
2019-05-16T18:54:13.607Z,10.55
2019-05-16T18:56:40.359Z,10.48
2019-05-16T18:59:07.273Z,10.52
2019-05-16T19:01:37.374Z,10.56
2019-05-16T19:04:03.559Z,10.54
2019-05-16T19:06:30.441Z,10.56
2019-05-16T19:08:58.477Z,10.57
2019-05-16T19:11:26.833Z,10.55
2019-05-16T19:13:53.711Z,10.56
2019-05-16T19:16:20.470Z,10.48
2019-05-16T19:18:47.232Z,10.51
2019-05-16T19:21:14.132Z,10.53
2019-05-16T19:23:40.875Z,10.46
2019-05-16T19:26:07.590Z,10.46
2019-05-16T19:28:34.404Z,10.43
2019-05-16T19:31:01.326Z,10.42
2019-05-16T19:33:28.088Z,10.40
2019-05-16T19:35:56.529Z,10.39
2019-05-16T19:38:23.455Z,10.39
2019-05-16T19:40:50.186Z,10.38
2019-05-16T19:43:17.498Z,10.39
2019-05-16T19:45:46.427Z,10.39
2019-05-16T19:48:13.063Z,10.36
2019-05-16T19:50:39.948Z,10.36
2019-05-16T19:53:07.573Z,10.36
2019-05-16T19:55:36.590Z,10.32
2019-05-16T19:58:03.302Z,10.29
2019-05-16T20:00:30.120Z,10.31
2019-05-16T20:02:57.078Z,10.31
2019-05-16T20:05:23.905Z,10.34
2019-05-16T20:07:50.677Z,10.31
2019-05-16T20:10:17.401Z,10.29
2019-05-16T20:12:46.165Z,10.30
2019-05-16T20:15:13.758Z,10.30
2019-05-16T20:17:52.110Z,10.32
2019-05-16T20:20:09.795Z,10.34
2019-05-16T20:22:36.958Z,10.31
2019-05-16T20:25:05.276Z,10.34
2019-05-16T20:27:32.105Z,10.35
2019-05-16T20:29:59.420Z,10.36
2019-05-16T20:32:27.639Z,10.35
2019-05-16T20:34:54.481Z,10.35
2019-05-16T20:37:21.211Z,10.37
2019-05-16T20:39:47.973Z,10.36
2019-05-16T20:42:16.935Z,10.36
2019-05-16T20:44:43.439Z,10.34
2019-05-16T20:47:10.167Z,10.35
2019-05-16T20:49:37.468Z,10.35
2019-05-16T20:52:06.910Z,10.34
2019-05-16T20:54:32.971Z,10.28
2019-05-16T20:56:59.851Z,10.25
2019-05-16T20:59:26.667Z,10.27
2019-05-16T21:01:53.432Z,10.24
2019-05-16T21:04:20.206Z,10.27
2019-05-16T21:06:59.936Z,10.27
2019-05-16T21:09:16.948Z,10.26
2019-05-16T21:11:43.955Z,10.26
2019-05-16T21:14:10.714Z,10.25
2019-05-16T21:16:38.029Z,10.24
2019-05-16T21:19:06.936Z,10.23
2019-05-16T21:21:33.577Z,10.24
2019-05-16T21:24:00.340Z,10.22
2019-05-16T21:26:27.145Z,10.23
2019-05-16T21:28:53.853Z,10.22
2019-05-16T21:31:20.581Z,10.22
2019-05-16T21:33:48.473Z,10.21
2019-05-16T21:36:16.065Z,10.23
2019-05-16T21:38:43.771Z,10.18
2019-05-16T21:41:10.552Z,10.19
2019-05-16T21:43:37.762Z,10.16
2019-05-16T21:46:04.657Z,10.16
2019-05-16T21:48:31.440Z,10.15
2019-05-16T21:50:58.198Z,10.14
2019-05-16T21:53:29.654Z,10.14
2019-05-16T21:55:53.532Z,10.14
2019-05-16T21:58:20.257Z,10.13
2019-05-16T22:00:56.691Z,10.12
2019-05-16T22:03:23.261Z,10.11
2019-05-16T22:05:49.962Z,10.08
2019-05-16T22:08:16.924Z,10.11
2019-05-16T22:10:43.867Z,10.12
2019-05-16T22:13:10.610Z,10.12
2019-05-16T22:15:37.532Z,10.11
2019-05-16T22:18:06.999Z,10.10
2019-05-16T22:20:33.054Z,10.08
2019-05-16T22:22:59.801Z,10.08
2019-05-16T22:25:27.285Z,10.05
2019-05-16T22:27:54.116Z,10.03
2019-05-16T22:30:21.242Z,10.04
2019-05-16T22:32:48.138Z,10.05
2019-05-16T22:35:17.282Z,10.05
2019-05-16T22:37:54.911Z,10.03
2019-05-16T22:40:17.216Z,10.04
2019-05-16T22:42:43.833Z,10.02
2019-05-16T22:45:10.885Z,10.02
2019-05-16T22:47:37.704Z,10.02
2019-05-16T22:50:08.271Z,10.02
2019-05-16T22:52:36.799Z,10.02
2019-05-16T22:55:07.249Z,10.01
2019-05-16T22:57:33.538Z,10.03
2019-05-16T23:00:00.265Z,10.01
2019-05-16T23:02:27.511Z,10.00
2019-05-16T23:04:56.523Z,10.03
2019-05-16T23:07:22.911Z,10.04
2019-05-16T23:09:49.694Z,10.01
2019-05-16T23:12:17.427Z,10.00
2019-05-16T23:14:46.199Z,10.01
2019-05-16T23:17:13.054Z,10.00
2019-05-16T23:19:39.836Z,9.96
2019-05-16T23:22:07.536Z,9.97
2019-05-16T23:24:36.826Z,9.94
2019-05-16T23:27:03.314Z,9.94
2019-05-16T23:29:30.064Z,9.94
2019-05-16T23:31:56.849Z,9.96
2019-05-16T23:34:23.566Z,9.94
2019-05-16T23:36:50.302Z,9.94
2019-05-16T23:39:17.054Z,9.90
2019-05-16T23:41:43.784Z,9.91
2019-05-16T23:44:10.514Z,9.90
2019-05-16T23:46:37.305Z,9.85
2019-05-16T23:49:04.060Z,9.81
2019-05-16T23:51:30.813Z,9.80
2019-05-16T23:53:57.584Z,9.73
2019-05-16T23:56:24.330Z,9.71
2019-05-16T23:58:51.100Z,9.67
